createdAt,value
2018-05-02T00:01:44.851Z,66.10
2018-05-02T00:04:12.988Z,65.22
2018-05-02T00:06:41.120Z,65.91
2018-05-02T00:09:09.229Z,66.14
2018-05-02T00:11:37.345Z,65.21
2018-05-02T00:14:05.477Z,65.60
2018-05-02T00:16:33.590Z,65.29
2018-05-02T00:19:01.723Z,65.45
2018-05-02T00:21:29.827Z,65.24
2018-05-02T00:23:57.955Z,66.47
2018-05-02T00:26:26.066Z,66.77
2018-05-02T00:28:54.196Z,66.26
2018-05-02T00:31:22.308Z,66.52
2018-05-02T00:33:50.410Z,66.08
2018-05-02T00:36:18.722Z,66.07
2018-05-02T00:38:46.859Z,66.25
2018-05-02T00:41:14.983Z,65.94
2018-05-02T00:43:43.123Z,66.15
2018-05-02T00:46:11.238Z,66.48
2018-05-02T00:48:51.245Z,66.45
2018-05-02T00:51:19.308Z,66.63
2018-05-02T00:53:47.421Z,67.11
2018-05-02T00:56:15.558Z,66.75
2018-05-02T00:58:43.723Z,67.09
2018-05-02T01:01:11.819Z,67.17
2018-05-02T01:03:40.114Z,67.18
2018-05-02T01:06:08.247Z,66.95
2018-05-02T01:08:36.361Z,67.12
2018-05-02T01:11:04.489Z,67.27
2018-05-02T01:13:32.609Z,67.31
2018-05-02T01:16:00.730Z,68.10
2018-05-02T01:18:29.141Z,67.37
2018-05-02T01:20:57.272Z,67.89
2018-05-02T01:23:25.377Z,67.85
2018-05-02T01:25:53.489Z,66.79
2018-05-02T01:28:21.609Z,67.65
2018-05-02T01:30:49.720Z,67.35
2018-05-02T01:33:17.853Z,67.30
2018-05-02T01:35:45.977Z,67.14
2018-05-02T01:38:14.081Z,68.00
2018-05-02T01:40:42.425Z,67.74
2018-05-02T01:43:10.547Z,69.12
2018-05-02T01:45:38.674Z,68.98
2018-05-02T01:48:06.805Z,68.94
2018-05-02T01:50:34.907Z,68.14
2018-05-02T01:53:03.017Z,68.48
2018-05-02T01:55:31.171Z,68.19
2018-05-02T01:57:59.285Z,68.95
2018-05-02T02:00:27.383Z,68.65
2018-05-02T02:02:55.524Z,67.71
2018-05-02T02:05:23.648Z,68.52
2018-05-02T02:07:51.767Z,68.41
2018-05-02T02:10:19.880Z,69.05
2018-05-02T02:12:48.001Z,68.10
2018-05-02T02:15:16.122Z,68.12
2018-05-02T02:17:45.350Z,67.92
2018-05-02T02:20:13.462Z,68.10
2018-05-02T02:22:41.596Z,67.91
2018-05-02T02:25:09.877Z,68.60
2018-05-02T02:27:38.003Z,68.81
2018-05-02T02:30:06.111Z,68.79
2018-05-02T02:32:34.226Z,69.55
2018-05-02T02:35:02.341Z,68.79
2018-05-02T02:37:30.431Z,69.11
2018-05-02T02:39:58.567Z,69.45
2018-05-02T02:42:26.684Z,69.02
2018-05-02T02:44:54.776Z,69.07
2018-05-02T02:47:22.980Z,69.60
2018-05-02T02:49:51.023Z,69.50
2018-05-02T02:52:19.118Z,69.66
2018-05-02T02:54:47.264Z,69.42
2018-05-02T02:57:15.373Z,69.97
2018-05-02T02:59:43.497Z,70.44
2018-05-02T03:02:11.636Z,70.12
2018-05-02T03:04:39.754Z,69.98
2018-05-02T03:07:07.868Z,70.79
2018-05-02T03:09:35.989Z,70.42
2018-05-02T03:12:04.104Z,70.21
2018-05-02T03:14:32.237Z,71.42
2018-05-02T03:17:00.483Z,71.79
2018-05-02T03:19:28.587Z,71.08
2018-05-02T03:21:56.706Z,70.91
2018-05-02T03:24:24.843Z,70.30
2018-05-02T03:26:52.970Z,70.82
2018-05-02T03:29:21.463Z,70.84
2018-05-02T03:31:49.591Z,70.64
2018-05-02T03:34:17.694Z,70.27
2018-05-02T03:36:45.831Z,70.70
2018-05-02T03:39:14.021Z,71.16
2018-05-02T03:41:42.130Z,70.66
2018-05-02T03:44:10.236Z,69.68
2018-05-02T03:46:38.342Z,69.79
2018-05-02T03:49:06.677Z,70.29
2018-05-02T03:51:34.779Z,70.13
2018-05-02T03:54:02.904Z,70.63
2018-05-02T03:56:31.010Z,70.57
2018-05-02T03:58:59.112Z,70.95
2018-05-02T04:01:38.887Z,71.19
2018-05-02T04:04:18.781Z,70.81
2018-05-02T04:07:15.073Z,70.55
2018-05-02T04:09:43.200Z,71.23
2018-05-02T04:12:22.166Z,70.66
2018-05-02T04:14:50.293Z,69.88
2018-05-02T04:17:18.405Z,70.50
2018-05-02T04:19:46.518Z,70.38
2018-05-02T04:22:14.628Z,70.53
2018-05-02T04:24:42.803Z,70.56
2018-05-02T04:27:11.005Z,70.36
2018-05-02T04:29:39.149Z,70.04
2018-05-02T04:32:07.257Z,70.60
2018-05-02T04:34:35.409Z,70.33
2018-05-02T04:37:03.543Z,70.33
2018-05-02T04:39:31.658Z,70.28
2018-05-02T04:41:59.781Z,69.80
2018-05-02T04:44:27.904Z,70.70
2018-05-02T04:46:56.024Z,69.87
2018-05-02T04:49:24.168Z,69.84
2018-05-02T04:51:52.259Z,69.66
2018-05-02T04:54:20.403Z,69.99
2018-05-02T04:56:48.524Z,70.00
2018-05-02T04:59:16.700Z,69.77
2018-05-02T05:01:44.821Z,69.22
2018-05-02T05:04:12.963Z,68.75
2018-05-02T05:06:41.097Z,69.03
2018-05-02T05:09:09.196Z,69.44
2018-05-02T05:11:37.325Z,69.80
2018-05-02T05:14:05.423Z,69.58
2018-05-02T05:16:33.532Z,68.90
2018-05-02T05:19:01.672Z,68.67
2018-05-02T05:21:29.827Z,68.60
2018-05-02T05:23:57.933Z,69.07
2018-05-02T05:26:26.046Z,68.71
2018-05-02T05:28:54.164Z,67.82
2018-05-02T05:31:22.277Z,67.85
2018-05-02T05:33:50.429Z,68.41
2018-05-02T05:36:18.526Z,67.85
2018-05-02T05:38:46.646Z,68.33
2018-05-02T05:41:14.781Z,69.62
2018-05-02T05:43:42.882Z,68.06
2018-05-02T05:46:11.006Z,68.34
2018-05-02T05:48:39.121Z,68.78
2018-05-02T05:51:07.223Z,68.75
2018-05-02T05:53:35.355Z,69.11
2018-05-02T05:56:03.500Z,68.19
2018-05-02T05:58:31.603Z,67.65
2018-05-02T06:00:59.711Z,67.24
2018-05-02T06:03:27.849Z,66.88
2018-05-02T06:05:55.961Z,67.12
2018-05-02T06:08:24.081Z,67.96
2018-05-02T06:10:52.190Z,67.52
2018-05-02T06:13:20.325Z,66.93
2018-05-02T06:15:48.423Z,67.13
2018-05-02T06:18:16.565Z,66.89
2018-05-02T06:20:44.691Z,66.20
2018-05-02T06:23:13.658Z,66.34
2018-05-02T06:25:41.780Z,65.54
2018-05-02T06:28:09.906Z,64.96
2018-05-02T06:30:38.011Z,64.80
2018-05-02T06:33:06.161Z,64.72
2018-05-02T06:35:34.259Z,64.91
2018-05-02T06:38:02.382Z,64.58
2018-05-02T06:40:30.509Z,64.25
2018-05-02T06:42:58.608Z,62.45
2018-05-02T06:45:26.728Z,62.67
2018-05-02T06:47:55.008Z,63.30
2018-05-02T06:50:23.211Z,62.40
2018-05-02T06:52:51.230Z,61.76
2018-05-02T06:55:19.357Z,61.94
2018-05-02T06:57:47.481Z,60.98
2018-05-02T07:00:16.043Z,59.52
2018-05-02T07:02:44.155Z,60.82
2018-05-02T07:05:12.295Z,60.34
2018-05-02T07:07:40.404Z,60.08
2018-05-02T07:10:08.534Z,60.13
2018-05-02T07:12:36.653Z,60.35
2018-05-02T07:15:04.769Z,59.89
2018-05-02T07:17:32.891Z,58.70
2018-05-02T07:20:01.011Z,57.78
2018-05-02T07:22:29.120Z,58.56
2018-05-02T07:24:57.245Z,58.32
2018-05-02T07:27:25.365Z,58.27
2018-05-02T07:29:53.493Z,57.97
2018-05-02T07:32:21.610Z,58.01
2018-05-02T07:34:49.728Z,58.19
2018-05-02T07:37:17.841Z,58.28
2018-05-02T07:39:45.989Z,57.80
2018-05-02T07:42:14.135Z,58.00
2018-05-02T07:44:42.212Z,57.73
2018-05-02T07:47:10.338Z,58.18
2018-05-02T07:49:38.484Z,58.34
2018-05-02T07:52:06.587Z,56.86
2018-05-02T07:54:34.735Z,57.58
2018-05-02T07:57:02.875Z,57.69
2018-05-02T07:59:30.977Z,56.75
2018-05-02T08:01:59.100Z,57.38
2018-05-02T08:04:27.218Z,57.25
2018-05-02T08:06:55.326Z,57.96
2018-05-02T08:09:23.468Z,57.68
2018-05-02T08:11:51.582Z,58.12
2018-05-02T08:14:19.776Z,57.27
2018-05-02T08:16:47.916Z,56.94
2018-05-02T08:19:16.047Z,56.17
2018-05-02T08:21:44.178Z,55.67
2018-05-02T08:24:12.297Z,55.75
2018-05-02T08:26:40.425Z,54.73
2018-05-02T08:29:08.518Z,54.23
2018-05-02T08:31:36.914Z,54.72
2018-05-02T08:34:04.965Z,54.21
2018-05-02T08:36:33.085Z,53.96
2018-05-02T08:39:01.237Z,54.01
2018-05-02T08:41:29.360Z,54.05
2018-05-02T08:43:57.488Z,52.96
2018-05-02T08:46:25.613Z,52.81
2018-05-02T08:48:53.729Z,52.55
2018-05-02T08:51:22.051Z,51.34
2018-05-02T08:53:50.189Z,50.02
2018-05-02T08:56:18.301Z,50.38
2018-05-02T08:58:46.411Z,50.88
2018-05-02T09:01:14.522Z,50.17
2018-05-02T09:03:42.715Z,50.42
2018-05-02T09:06:10.761Z,50.57
2018-05-02T09:08:38.896Z,49.71
2018-05-02T09:11:07.017Z,49.39
2018-05-02T09:13:35.145Z,49.28
2018-05-02T09:16:03.428Z,49.10
2018-05-02T09:18:31.544Z,49.03
2018-05-02T09:20:59.682Z,47.89
2018-05-02T09:23:27.809Z,47.63
2018-05-02T09:25:55.978Z,47.61
2018-05-02T09:28:24.282Z,46.96
2018-05-02T09:30:52.431Z,47.09
2018-05-02T09:33:20.531Z,48.13
2018-05-02T09:35:48.636Z,48.26
2018-05-02T09:38:16.760Z,46.22
2018-05-02T09:40:44.881Z,45.82
2018-05-02T09:43:13.000Z,46.01
2018-05-02T09:45:44.447Z,46.64
2018-05-02T09:48:12.572Z,46.23
2018-05-02T09:50:40.684Z,46.61
2018-05-02T09:53:08.818Z,46.80
2018-05-02T09:55:36.933Z,47.84
2018-05-02T09:58:05.072Z,50.28
2018-05-02T10:00:33.198Z,47.18
2018-05-02T10:03:01.317Z,48.22
2018-05-02T10:05:29.431Z,48.66
2018-05-02T10:07:57.548Z,48.87
2018-05-02T10:10:25.685Z,49.74
2018-05-02T10:12:53.800Z,50.44
2018-05-02T10:15:21.956Z,49.35
2018-05-02T10:17:50.056Z,49.26
2018-05-02T10:20:18.182Z,48.97
2018-05-02T10:22:46.323Z,48.13
2018-05-02T10:25:14.428Z,49.28
2018-05-02T10:27:42.558Z,48.91
2018-05-02T10:30:10.680Z,48.88
2018-05-02T10:32:38.792Z,48.24
2018-05-02T10:35:06.914Z,49.39
2018-05-02T10:37:35.057Z,46.67
2018-05-02T10:40:03.176Z,45.01
2018-05-02T10:42:31.296Z,45.98
2018-05-02T10:44:59.440Z,45.69
2018-05-02T10:47:27.554Z,46.62
2018-05-02T10:49:55.657Z,47.11
2018-05-02T10:52:23.792Z,46.66
2018-05-02T10:54:51.916Z,46.92
2018-05-02T10:57:20.024Z,46.41
2018-05-02T10:59:48.135Z,46.92
2018-05-02T11:02:16.239Z,46.90
2018-05-02T11:04:44.347Z,47.61
2018-05-02T11:07:12.482Z,48.09
2018-05-02T11:09:40.605Z,47.43
2018-05-02T11:12:08.738Z,47.04
2018-05-02T11:14:36.845Z,47.23
2018-05-02T11:17:04.946Z,48.27
2018-05-02T11:19:33.062Z,47.81
2018-05-02T11:22:01.230Z,46.31
2018-05-02T11:24:29.327Z,46.61
2018-05-02T11:26:57.439Z,45.07
2018-05-02T11:29:25.584Z,47.04
2018-05-02T11:31:53.693Z,46.41
2018-05-02T11:34:21.817Z,45.79
2018-05-02T11:36:49.930Z,46.93
2018-05-02T11:39:18.177Z,43.62
2018-05-02T11:41:46.309Z,42.34
2018-05-02T11:44:14.415Z,41.88
2018-05-02T11:46:42.521Z,43.70
2018-05-02T11:49:10.642Z,42.79
2018-05-02T11:51:38.788Z,43.27
2018-05-02T11:54:06.906Z,41.76
2018-05-02T11:56:35.007Z,40.88
2018-05-02T11:59:03.188Z,41.10
2018-05-02T12:01:31.319Z,41.89
2018-05-02T12:03:59.433Z,40.60
2018-05-02T12:06:27.575Z,41.29
2018-05-02T12:08:55.674Z,39.90
2018-05-02T12:11:23.840Z,41.37
2018-05-02T12:13:51.967Z,39.54
2018-05-02T12:16:20.091Z,40.04
2018-05-02T12:18:48.219Z,39.49
2018-05-02T12:21:16.346Z,39.50
2018-05-02T12:23:44.468Z,41.40
2018-05-02T12:26:12.570Z,40.59
2018-05-02T12:28:40.722Z,40.18
2018-05-02T12:31:08.829Z,41.24
2018-05-02T12:33:36.974Z,39.49
2018-05-02T12:36:05.091Z,39.17
2018-05-02T12:38:33.191Z,39.31
2018-05-02T12:41:01.299Z,40.03
2018-05-02T12:43:29.428Z,40.37
2018-05-02T12:45:57.524Z,40.65
2018-05-02T12:48:25.664Z,40.48
2018-05-02T12:50:53.778Z,40.25
2018-05-02T12:53:21.901Z,39.65
2018-05-02T12:55:50.005Z,39.68
2018-05-02T12:58:18.123Z,39.81
2018-05-02T13:00:46.257Z,40.96
2018-05-02T13:03:14.365Z,40.09
2018-05-02T13:05:42.513Z,41.33
2018-05-02T13:08:10.627Z,41.71
2018-05-02T13:10:38.811Z,41.40
2018-05-02T13:13:16.630Z,40.58
2018-05-02T13:15:46.488Z,41.19
2018-05-02T13:18:14.612Z,40.26
2018-05-02T13:20:42.739Z,40.16
2018-05-02T13:23:10.843Z,40.20
2018-05-02T13:25:38.965Z,40.82
2018-05-02T13:28:07.083Z,40.74
2018-05-02T13:30:35.202Z,40.10
2018-05-02T13:33:03.402Z,40.49
2018-05-02T13:35:31.423Z,40.48
2018-05-02T13:37:59.531Z,39.54
2018-05-02T13:40:27.634Z,39.31
2018-05-02T13:42:55.747Z,40.10
2018-05-02T13:45:23.893Z,40.89
2018-05-02T13:47:52.006Z,41.69
2018-05-02T13:50:20.147Z,40.34
2018-05-02T13:52:48.283Z,39.40
2018-05-02T13:55:16.550Z,39.61
2018-05-02T13:57:44.725Z,40.18
2018-05-02T14:00:12.844Z,41.36
2018-05-02T14:02:40.953Z,39.76
2018-05-02T14:05:09.070Z,40.69
2018-05-02T14:07:37.197Z,41.06
2018-05-02T14:10:05.321Z,40.61
2018-05-02T14:12:33.452Z,40.34
2018-05-02T14:15:01.589Z,40.03
2018-05-02T14:17:29.701Z,40.37
2018-05-02T14:19:57.844Z,39.15
2018-05-02T14:22:25.961Z,39.37
2018-05-02T14:24:54.058Z,39.70
2018-05-02T14:27:22.205Z,41.14
2018-05-02T14:29:50.309Z,41.36
2018-05-02T14:32:18.408Z,41.31
2018-05-02T14:34:46.545Z,39.94
2018-05-02T14:37:14.660Z,39.26
2018-05-02T14:39:42.796Z,39.03
2018-05-02T14:42:10.929Z,39.01
2018-05-02T14:44:39.157Z,39.55
2018-05-02T14:47:07.288Z,39.97
2018-05-02T14:49:35.436Z,40.52
2018-05-02T14:52:03.530Z,40.73
2018-05-02T14:54:31.678Z,40.76
2018-05-02T14:56:59.790Z,40.95
2018-05-02T14:59:27.901Z,40.10
2018-05-02T15:01:56.021Z,40.13
2018-05-02T15:04:24.136Z,40.38
2018-05-02T15:06:52.264Z,41.40
2018-05-02T15:09:20.424Z,41.11
2018-05-02T15:11:48.722Z,40.78
2018-05-02T15:14:16.838Z,40.96
2018-05-02T15:16:44.936Z,40.34
2018-05-02T15:19:13.212Z,40.97
2018-05-02T15:21:41.328Z,41.05
2018-05-02T15:24:09.432Z,40.58
2018-05-02T15:26:37.573Z,40.88
2018-05-02T15:29:05.686Z,41.45
2018-05-02T15:31:33.786Z,41.11
2018-05-02T15:34:01.938Z,40.07
2018-05-02T15:36:30.076Z,39.76
2018-05-02T15:38:58.170Z,40.31
2018-05-02T15:41:26.318Z,40.60
2018-05-02T15:43:54.442Z,40.07
2018-05-02T15:46:22.556Z,41.39
2018-05-02T15:48:50.705Z,40.56
2018-05-02T15:51:18.835Z,39.30
2018-05-02T15:53:46.931Z,40.27
2018-05-02T15:56:15.140Z,39.47
2018-05-02T15:58:43.185Z,39.95
2018-05-02T16:01:11.305Z,40.54
2018-05-02T16:03:39.433Z,39.43
2018-05-02T16:06:07.549Z,39.31
2018-05-02T16:08:35.670Z,39.62
2018-05-02T16:11:03.779Z,40.67
2018-05-02T16:13:31.890Z,42.54
2018-05-02T16:15:59.992Z,40.00
2018-05-02T16:18:28.103Z,40.20
2018-05-02T16:20:56.302Z,39.98
2018-05-02T16:23:24.440Z,40.35
2018-05-02T16:25:52.551Z,40.68
2018-05-02T16:28:20.669Z,40.58
2018-05-02T16:30:48.793Z,41.35
2018-05-02T16:33:17.005Z,41.31
2018-05-02T16:35:45.035Z,40.30
2018-05-02T16:38:13.168Z,40.94
2018-05-02T16:40:41.300Z,41.17
2018-05-02T16:43:09.409Z,40.89
2018-05-02T16:45:37.525Z,44.29
2018-05-02T16:48:05.657Z,39.99
2018-05-02T16:50:33.773Z,40.79
2018-05-02T16:53:01.896Z,40.66
2018-05-02T16:55:30.009Z,41.27
2018-05-02T16:57:58.152Z,41.89
2018-05-02T17:00:26.245Z,42.49
2018-05-02T17:02:54.383Z,42.79
2018-05-02T17:05:22.522Z,43.26
2018-05-02T17:07:50.621Z,41.78
2018-05-02T17:10:18.882Z,42.84
2018-05-02T17:12:46.881Z,42.77
2018-05-02T17:15:15.001Z,43.07
2018-05-02T17:17:43.151Z,43.03
2018-05-02T17:20:11.271Z,41.37
2018-05-02T17:22:39.363Z,41.97
2018-05-02T17:25:07.508Z,41.93
2018-05-02T17:27:35.621Z,42.09
2018-05-02T17:30:03.796Z,42.88
2018-05-02T17:32:31.874Z,42.44
2018-05-02T17:34:59.976Z,42.34
2018-05-02T17:37:28.093Z,42.16
2018-05-02T17:39:56.251Z,42.66
2018-05-02T17:42:24.347Z,42.63
2018-05-02T17:44:52.458Z,43.01
2018-05-02T17:47:20.811Z,43.57
2018-05-02T17:49:48.929Z,43.70
2018-05-02T17:52:17.074Z,42.95
2018-05-02T17:54:45.212Z,42.99
2018-05-02T17:57:13.330Z,44.70
2018-05-02T17:59:41.428Z,44.46
2018-05-02T18:02:09.551Z,44.28
2018-05-02T18:04:37.681Z,44.85
2018-05-02T18:07:05.828Z,44.24
2018-05-02T18:09:33.939Z,44.34
2018-05-02T18:12:02.072Z,44.66
2018-05-02T18:14:33.131Z,44.19
2018-05-02T18:17:01.318Z,43.47
2018-05-02T18:19:29.452Z,43.21
2018-05-02T18:21:57.569Z,44.03
2018-05-02T18:24:25.734Z,44.40
2018-05-02T18:26:53.839Z,44.63
2018-05-02T18:29:21.966Z,44.38
2018-05-02T18:31:50.114Z,45.04
2018-05-02T18:34:18.211Z,44.97
2018-05-02T18:36:46.318Z,44.51
2018-05-02T18:39:14.655Z,45.40
2018-05-02T18:41:42.762Z,45.05
2018-05-02T18:44:10.885Z,44.20
2018-05-02T18:46:39.232Z,45.06
2018-05-02T18:49:07.366Z,45.16
2018-05-02T18:51:35.473Z,45.58
2018-05-02T18:54:03.689Z,45.82
2018-05-02T18:56:35.537Z,45.56
2018-05-02T18:59:03.642Z,45.40
2018-05-02T19:01:31.799Z,45.63
2018-05-02T19:03:59.913Z,45.72
2018-05-02T19:06:28.010Z,46.06
2018-05-02T19:08:56.131Z,45.89
2018-05-02T19:11:24.249Z,46.31
2018-05-02T19:13:57.920Z,46.49
2018-05-02T19:16:26.048Z,46.25
2018-05-02T19:18:59.954Z,46.88
2018-05-02T19:21:28.066Z,46.88
2018-05-02T19:23:56.200Z,47.04
2018-05-02T19:26:29.889Z,47.18
2018-05-02T19:28:58.036Z,48.10
2018-05-02T19:31:33.875Z,48.16
2018-05-02T19:34:02.008Z,48.21
2018-05-02T19:36:30.226Z,48.69
2018-05-02T19:38:58.379Z,48.60
2018-05-02T19:41:32.136Z,48.83
2018-05-02T19:44:04.841Z,49.40
2018-05-02T19:46:32.983Z,49.99
2018-05-02T19:49:01.088Z,50.20
2018-05-02T19:51:34.881Z,50.74
2018-05-02T19:54:02.974Z,51.10
2018-05-02T19:56:31.092Z,50.76
2018-05-02T19:58:59.232Z,51.80
2018-05-02T20:01:32.889Z,51.81
2018-05-02T20:04:01.033Z,52.75
2018-05-02T20:06:29.169Z,52.91
2018-05-02T20:09:06.039Z,53.33
2018-05-02T20:11:39.719Z,52.99
2018-05-02T20:14:07.908Z,51.59
2018-05-02T20:16:36.025Z,51.69
2018-05-02T20:19:04.207Z,51.86
2018-05-02T20:21:32.283Z,52.94
2018-05-02T20:24:00.397Z,53.12
2018-05-02T20:26:28.513Z,53.12
2018-05-02T20:28:56.648Z,53.80
2018-05-02T20:31:24.768Z,54.12
2018-05-02T20:33:52.864Z,54.56
2018-05-02T20:36:21.017Z,53.88
2018-05-02T20:38:49.118Z,54.61
2018-05-02T20:41:17.241Z,55.32
2018-05-02T20:43:45.481Z,55.59
2018-05-02T20:46:13.607Z,56.65
2018-05-02T20:48:41.746Z,56.97
2018-05-02T20:51:09.881Z,56.51
2018-05-02T20:53:38.001Z,55.04
2018-05-02T20:56:06.131Z,55.71
2018-05-02T20:58:34.250Z,55.55
2018-05-02T21:01:02.385Z,55.85
2018-05-02T21:03:30.481Z,56.29
2018-05-02T21:05:58.599Z,56.23
2018-05-02T21:08:26.725Z,57.43
2018-05-02T21:10:54.841Z,57.20
2018-05-02T21:13:22.985Z,57.59
2018-05-02T21:15:51.088Z,58.46
2018-05-02T21:18:19.271Z,58.04
2018-05-02T21:20:47.385Z,58.36
2018-05-02T21:23:15.524Z,58.88
2018-05-02T21:25:43.665Z,58.78
2018-05-02T21:28:11.796Z,59.27
2018-05-02T21:30:39.908Z,60.09
2018-05-02T21:33:08.039Z,59.36
2018-05-02T21:35:36.174Z,59.56
2018-05-02T21:38:04.278Z,59.48
2018-05-02T21:40:32.453Z,59.86
2018-05-02T21:43:00.602Z,59.74
2018-05-02T21:45:28.890Z,59.46
2018-05-02T21:47:57.300Z,60.07
2018-05-02T21:50:25.729Z,60.55
2018-05-02T21:52:53.849Z,59.83
2018-05-02T21:55:21.956Z,59.69
2018-05-02T21:57:50.096Z,60.45
2018-05-02T22:00:18.213Z,59.18
2018-05-02T22:02:46.318Z,59.09
2018-05-02T22:05:14.462Z,59.23
2018-05-02T22:07:42.562Z,59.64
2018-05-02T22:10:10.700Z,57.96
2018-05-02T22:12:38.830Z,59.17
2018-05-02T22:15:06.927Z,59.71
2018-05-02T22:17:35.048Z,59.16
2018-05-02T22:20:03.162Z,56.93
2018-05-02T22:22:31.286Z,55.57
2018-05-02T22:24:59.409Z,54.00
2018-05-02T22:27:27.523Z,54.07
2018-05-02T22:29:55.640Z,51.56
2018-05-02T22:32:23.746Z,51.18
2018-05-02T22:34:51.881Z,51.73
2018-05-02T22:37:20.011Z,51.04
2018-05-02T22:39:48.125Z,50.45
2018-05-02T22:42:16.265Z,50.26
2018-05-02T22:44:44.396Z,50.33
2018-05-02T22:47:12.487Z,50.29
2018-05-02T22:49:40.617Z,50.59
2018-05-02T22:52:08.732Z,50.61
2018-05-02T22:54:36.866Z,50.37
2018-05-02T22:57:05.021Z,50.79
2018-05-02T22:59:33.129Z,50.78
2018-05-02T23:02:01.249Z,50.59
2018-05-02T23:04:29.370Z,50.75
2018-05-02T23:06:57.546Z,51.45
2018-05-02T23:09:25.646Z,51.43
2018-05-02T23:11:53.792Z,51.98
2018-05-02T23:14:21.900Z,51.49
2018-05-02T23:16:50.016Z,51.40
2018-05-02T23:19:18.167Z,51.96
2018-05-02T23:21:46.321Z,51.91
2018-05-02T23:24:14.499Z,51.85
2018-05-02T23:26:42.651Z,51.37
2018-05-02T23:29:10.846Z,51.49
2018-05-02T23:31:38.976Z,51.56
2018-05-02T23:34:07.109Z,51.45
2018-05-02T23:36:35.266Z,51.07
2018-05-02T23:39:03.340Z,51.30
2018-05-02T23:41:31.517Z,51.49
2018-05-02T23:43:59.695Z,51.34
2018-05-02T23:46:27.824Z,51.72
2018-05-02T23:48:55.960Z,51.51
2018-05-02T23:51:24.057Z,52.60
2018-05-02T23:53:52.189Z,52.40
2018-05-02T23:56:20.304Z,53.51
2018-05-02T23:58:48.421Z,55.43
